sensor_id;sensor_type;location;lat;lon;timestamp;P1;durP1;ratioP1;P2;durP2;ratioP2
5355;SDS011;70449;52.486;13.386;2023-07-22T00:01:05;7.00;;;5.73;;
5355;SDS011;70449;52.486;13.386;2023-07-22T00:03:32;6.10;;;5.50;;
5355;SDS011;70449;52.486;13.386;2023-07-22T00:06:04;7.30;;;5.50;;
5355;SDS011;70449;52.486;13.386;2023-07-22T00:08:32;9.07;;;6.90;;
5355;SDS011;70449;52.486;13.386;2023-07-22T00:11:00;8.80;;;6.33;;
5355;SDS011;70449;52.486;13.386;2023-07-22T00:13:27;7.80;;;6.67;;
5355;SDS011;70449;52.486;13.386;2023-07-22T00:15:54;8.10;;;5.60;;
5355;SDS011;70449;52.486;13.386;2023-07-22T00:18:24;6.93;;;5.37;;
5355;SDS011;70449;52.486;13.386;2023-07-22T00:20:52;5.93;;;5.43;;
5355;SDS011;70449;52.486;13.386;2023-07-22T00:23:21;5.20;;;4.70;;
5355;SDS011;70449;52.486;13.386;2023-07-22T00:25:49;7.90;;;5.20;;
5355;SDS011;70449;52.486;13.386;2023-07-22T00:28:17;7.57;;;5.80;;
5355;SDS011;70449;52.486;13.386;2023-07-22T00:30:44;6.40;;;5.70;;
5355;SDS011;70449;52.486;13.386;2023-07-22T00:33:14;8.67;;;5.87;;
5355;SDS011;70449;52.486;13.386;2023-07-22T00:35:41;7.80;;;5.50;;
5355;SDS011;70449;52.486;13.386;2023-07-22T00:38:08;6.90;;;5.73;;
5355;SDS011;70449;52.486;13.386;2023-07-22T00:40:37;6.13;;;5.53;;
5355;SDS011;70449;52.486;13.386;2023-07-22T00:43:04;6.37;;;5.77;;
5355;SDS011;70449;52.486;13.386;2023-07-22T00:45:32;7.47;;;5.27;;
5355;SDS011;70449;52.486;13.386;2023-07-22T00:47:59;15.13;;;6.27;;
5355;SDS011;70449;52.486;13.386;2023-07-22T00:50:26;10.00;;;6.20;;
5355;SDS011;70449;52.486;13.386;2023-07-22T00:52:54;6.43;;;5.30;;
5355;SDS011;70449;52.486;13.386;2023-07-22T00:55:22;6.30;;;5.70;;
5355;SDS011;70449;52.486;13.386;2023-07-22T00:57:51;6.60;;;6.00;;
5355;SDS011;70449;52.486;13.386;2023-07-22T01:00:18;7.93;;;6.13;;
5355;SDS011;70449;52.486;13.386;2023-07-22T01:02:45;10.60;;;6.53;;
5355;SDS011;70449;52.486;13.386;2023-07-22T01:05:13;9.80;;;5.57;;
5355;SDS011;70449;52.486;13.386;2023-07-22T01:07:41;6.90;;;6.10;;
5355;SDS011;70449;52.486;13.386;2023-07-22T01:10:09;7.00;;;6.40;;
5355;SDS011;70449;52.486;13.386;2023-07-22T01:12:39;9.23;;;6.37;;
5355;SDS011;70449;52.486;13.386;2023-07-22T01:15:08;8.53;;;6.20;;
5355;SDS011;70449;52.486;13.386;2023-07-22T01:17:36;6.40;;;5.70;;
5355;SDS011;70449;52.486;13.386;2023-07-22T01:20:05;10.10;;;6.07;;
5355;SDS011;70449;52.486;13.386;2023-07-22T01:22:34;11.50;;;6.43;;
5355;SDS011;70449;52.486;13.386;2023-07-22T01:25:05;7.43;;;6.43;;
5355;SDS011;70449;52.486;13.386;2023-07-22T01:27:33;11.47;;;7.00;;
5355;SDS011;70449;52.486;13.386;2023-07-22T01:30:00;7.63;;;5.70;;
5355;SDS011;70449;52.486;13.386;2023-07-22T01:32:28;8.37;;;6.33;;
5355;SDS011;70449;52.486;13.386;2023-07-22T01:34:56;7.17;;;6.47;;
5355;SDS011;70449;52.486;13.386;2023-07-22T01:37:23;7.80;;;7.10;;
5355;SDS011;70449;52.486;13.386;2023-07-22T01:39:50;7.50;;;6.80;;
5355;SDS011;70449;52.486;13.386;2023-07-22T01:42:19;8.50;;;7.70;;
5355;SDS011;70449;52.486;13.386;2023-07-22T01:44:46;7.43;;;6.73;;
5355;SDS011;70449;52.486;13.386;2023-07-22T01:47:13;7.13;;;6.43;;
5355;SDS011;70449;52.486;13.386;2023-07-22T01:49:41;12.10;;;7.50;;
5355;SDS011;70449;52.486;13.386;2023-07-22T01:52:10;7.80;;;6.97;;
5355;SDS011;70449;52.486;13.386;2023-07-22T01:54:37;10.00;;;6.73;;
5355;SDS011;70449;52.486;13.386;2023-07-22T01:57:05;8.47;;;7.27;;
5355;SDS011;70449;52.486;13.386;2023-07-22T01:59:34;14.60;;;6.97;;
5355;SDS011;70449;52.486;13.386;2023-07-22T02:02:01;8.30;;;6.23;;
5355;SDS011;70449;52.486;13.386;2023-07-22T02:04:28;8.40;;;6.30;;
5355;SDS011;70449;52.486;13.386;2023-07-22T02:06:56;8.10;;;7.27;;
5355;SDS011;70449;52.486;13.386;2023-07-22T02:09:23;12.90;;;7.00;;
5355;SDS011;70449;52.486;13.386;2023-07-22T02:11:50;9.37;;;6.90;;
5355;SDS011;70449;52.486;13.386;2023-07-22T02:14:18;11.80;;;7.37;;
5355;SDS011;70449;52.486;13.386;2023-07-22T02:16:47;9.57;;;6.40;;
5355;SDS011;70449;52.486;13.386;2023-07-22T02:19:14;10.30;;;5.73;;
5355;SDS011;70449;52.486;13.386;2023-07-22T02:21:41;9.63;;;6.83;;
5355;SDS011;70449;52.486;13.386;2023-07-22T02:24:09;17.83;;;6.00;;
5355;SDS011;70449;52.486;13.386;2023-07-22T02:26:36;10.53;;;7.10;;
5355;SDS011;70449;52.486;13.386;2023-07-22T02:29:04;9.10;;;6.00;;
5355;SDS011;70449;52.486;13.386;2023-07-22T02:31:31;9.00;;;5.90;;
5355;SDS011;70449;52.486;13.386;2023-07-22T02:34:00;12.20;;;6.10;;
5355;SDS011;70449;52.486;13.386;2023-07-22T02:36:27;6.80;;;5.97;;
5355;SDS011;70449;52.486;13.386;2023-07-22T02:38:54;5.83;;;5.23;;
5355;SDS011;70449;52.486;13.386;2023-07-22T02:41:21;6.77;;;6.17;;
5355;SDS011;70449;52.486;13.386;2023-07-22T02:43:49;6.20;;;5.70;;
5355;SDS011;70449;52.486;13.386;2023-07-22T02:46:16;6.60;;;6.00;;
5355;SDS011;70449;52.486;13.386;2023-07-22T02:48:43;6.23;;;5.63;;
5355;SDS011;70449;52.486;13.386;2023-07-22T02:51:11;5.70;;;5.20;;
5355;SDS011;70449;52.486;13.386;2023-07-22T02:53:39;6.80;;;6.00;;
5355;SDS011;70449;52.486;13.386;2023-07-22T02:56:06;5.73;;;5.10;;
5355;SDS011;70449;52.486;13.386;2023-07-22T02:58:33;6.50;;;5.77;;
5355;SDS011;70449;52.486;13.386;2023-07-22T03:01:02;5.87;;;4.80;;
5355;SDS011;70449;52.486;13.386;2023-07-22T03:03:31;11.63;;;7.50;;
5355;SDS011;70449;52.486;13.386;2023-07-22T03:05:59;7.03;;;5.57;;
5355;SDS011;70449;52.486;13.386;2023-07-22T03:08:27;10.10;;;6.10;;
5355;SDS011;70449;52.486;13.386;2023-07-22T03:10:55;12.50;;;5.97;;
5355;SDS011;70449;52.486;13.386;2023-07-22T03:13:22;8.60;;;6.27;;
5355;SDS011;70449;52.486;13.386;2023-07-22T03:15:49;11.30;;;6.07;;
5355;SDS011;70449;52.486;13.386;2023-07-22T03:18:16;6.57;;;5.87;;
5355;SDS011;70449;52.486;13.386;2023-07-22T03:20:45;8.93;;;5.90;;
5355;SDS011;70449;52.486;13.386;2023-07-22T03:23:12;8.30;;;6.77;;
5355;SDS011;70449;52.486;13.386;2023-07-22T03:25:40;9.60;;;6.27;;
5355;SDS011;70449;52.486;13.386;2023-07-22T03:28:07;6.43;;;5.83;;
5355;SDS011;70449;52.486;13.386;2023-07-22T03:30:35;7.93;;;6.90;;
5355;SDS011;70449;52.486;13.386;2023-07-22T03:33:02;10.30;;;6.23;;
5355;SDS011;70449;52.486;13.386;2023-07-22T03:35:29;11.33;;;7.10;;
5355;SDS011;70449;52.486;13.386;2023-07-22T03:37:56;14.80;;;6.90;;
5355;SDS011;70449;52.486;13.386;2023-07-22T03:40:23;7.90;;;7.10;;
5355;SDS011;70449;52.486;13.386;2023-07-22T03:42:56;6.63;;;5.77;;
5355;SDS011;70449;52.486;13.386;2023-07-22T03:45:24;8.50;;;6.40;;
5355;SDS011;70449;52.486;13.386;2023-07-22T03:47:52;8.20;;;5.80;;
5355;SDS011;70449;52.486;13.386;2023-07-22T03:50:25;6.23;;;5.13;;
5355;SDS011;70449;52.486;13.386;2023-07-22T03:52:52;8.30;;;6.40;;
5355;SDS011;70449;52.486;13.386;2023-07-22T03:55:19;15.43;;;7.90;;
5355;SDS011;70449;52.486;13.386;2023-07-22T03:57:47;13.10;;;6.20;;
5355;SDS011;70449;52.486;13.386;2023-07-22T04:00:16;10.40;;;6.33;;
5355;SDS011;70449;52.486;13.386;2023-07-22T04:02:43;7.80;;;5.40;;
5355;SDS011;70449;52.486;13.386;2023-07-22T04:05:11;7.80;;;5.53;;
5355;SDS011;70449;52.486;13.386;2023-07-22T04:07:38;7.20;;;4.20;;
5355;SDS011;70449;52.486;13.386;2023-07-22T04:10:06;5.57;;;4.77;;
5355;SDS011;70449;52.486;13.386;2023-07-22T04:12:34;5.57;;;4.20;;
5355;SDS011;70449;52.486;13.386;2023-07-22T04:15:01;7.17;;;4.63;;
5355;SDS011;70449;52.486;13.386;2023-07-22T04:17:29;5.90;;;4.80;;
5355;SDS011;70449;52.486;13.386;2023-07-22T04:19:57;10.03;;;4.57;;
5355;SDS011;70449;52.486;13.386;2023-07-22T04:22:24;6.03;;;4.03;;
5355;SDS011;70449;52.486;13.386;2023-07-22T04:24:51;4.20;;;3.90;;
5355;SDS011;70449;52.486;13.386;2023-07-22T04:27:18;6.57;;;4.47;;
5355;SDS011;70449;52.486;13.386;2023-07-22T04:29:46;4.67;;;4.10;;
5355;SDS011;70449;52.486;13.386;2023-07-22T04:32:13;4.30;;;3.90;;
5355;SDS011;70449;52.486;13.386;2023-07-22T04:34:41;5.67;;;4.20;;
5355;SDS011;70449;52.486;13.386;2023-07-22T04:37:08;4.10;;;3.80;;
5355;SDS011;70449;52.486;13.386;2023-07-22T04:39:36;5.53;;;4.50;;
5355;SDS011;70449;52.486;13.386;2023-07-22T04:42:03;4.93;;;4.27;;
5355;SDS011;70449;52.486;13.386;2023-07-22T04:44:31;5.60;;;4.33;;
5355;SDS011;70449;52.486;13.386;2023-07-22T04:46:58;6.10;;;4.20;;
5355;SDS011;70449;52.486;13.386;2023-07-22T04:49:26;5.70;;;4.93;;
5355;SDS011;70449;52.486;13.386;2023-07-22T04:51:54;22.23;;;5.27;;
5355;SDS011;70449;52.486;13.386;2023-07-22T04:54:21;6.57;;;4.47;;
5355;SDS011;70449;52.486;13.386;2023-07-22T04:56:48;5.60;;;5.00;;
5355;SDS011;70449;52.486;13.386;2023-07-22T04:59:15;5.40;;;4.90;;
5355;SDS011;70449;52.486;13.386;2023-07-22T05:01:43;5.93;;;5.27;;
5355;SDS011;70449;52.486;13.386;2023-07-22T05:04:11;8.03;;;4.90;;
5355;SDS011;70449;52.486;13.386;2023-07-22T05:06:38;7.67;;;5.37;;
5355;SDS011;70449;52.486;13.386;2023-07-22T05:09:07;7.23;;;5.60;;
5355;SDS011;70449;52.486;13.386;2023-07-22T05:11:34;13.43;;;5.60;;
5355;SDS011;70449;52.486;13.386;2023-07-22T05:14:01;5.33;;;4.83;;
5355;SDS011;70449;52.486;13.386;2023-07-22T05:16:28;11.80;;;5.93;;
5355;SDS011;70449;52.486;13.386;2023-07-22T05:18:56;13.37;;;5.30;;
5355;SDS011;70449;52.486;13.386;2023-07-22T05:21:24;7.87;;;5.80;;
5355;SDS011;70449;52.486;13.386;2023-07-22T05:23:51;17.03;;;6.00;;
5355;SDS011;70449;52.486;13.386;2023-07-22T05:26:20;7.80;;;5.97;;
5355;SDS011;70449;52.486;13.386;2023-07-22T05:28:49;11.77;;;6.43;;
5355;SDS011;70449;52.486;13.386;2023-07-22T05:31:16;10.43;;;6.67;;
5355;SDS011;70449;52.486;13.386;2023-07-22T05:33:43;17.63;;;6.53;;
5355;SDS011;70449;52.486;13.386;2023-07-22T05:36:12;14.37;;;6.07;;
5355;SDS011;70449;52.486;13.386;2023-07-22T05:38:39;13.57;;;7.93;;
5355;SDS011;70449;52.486;13.386;2023-07-22T05:41:06;12.47;;;6.80;;
5355;SDS011;70449;52.486;13.386;2023-07-22T05:43:35;13.03;;;6.57;;
5355;SDS011;70449;52.486;13.386;2023-07-22T05:46:02;11.30;;;7.63;;
5355;SDS011;70449;52.486;13.386;2023-07-22T05:48:30;11.13;;;7.57;;
5355;SDS011;70449;52.486;13.386;2023-07-22T05:50:57;8.77;;;6.80;;
5355;SDS011;70449;52.486;13.386;2023-07-22T05:53:25;11.03;;;6.67;;
5355;SDS011;70449;52.486;13.386;2023-07-22T05:55:52;16.97;;;6.80;;
5355;SDS011;70449;52.486;13.386;2023-07-22T05:58:20;11.10;;;6.07;;
5355;SDS011;70449;52.486;13.386;2023-07-22T06:00:48;16.47;;;8.07;;
5355;SDS011;70449;52.486;13.386;2023-07-22T06:03:18;18.33;;;8.13;;
5355;SDS011;70449;52.486;13.386;2023-07-22T06:05:46;10.87;;;7.57;;
5355;SDS011;70449;52.486;13.386;2023-07-22T06:08:13;9.97;;;7.30;;
5355;SDS011;70449;52.486;13.386;2023-07-22T06:10:40;16.00;;;7.20;;
5355;SDS011;70449;52.486;13.386;2023-07-22T06:13:08;13.40;;;7.70;;
5355;SDS011;70449;52.486;13.386;2023-07-22T06:15:35;8.63;;;6.70;;
5355;SDS011;70449;52.486;13.386;2023-07-22T06:18:04;12.90;;;6.70;;
5355;SDS011;70449;52.486;13.386;2023-07-22T06:20:34;10.40;;;6.83;;
5355;SDS011;70449;52.486;13.386;2023-07-22T06:23:02;9.53;;;6.37;;
5355;SDS011;70449;52.486;13.386;2023-07-22T06:25:29;13.87;;;7.77;;
5355;SDS011;70449;52.486;13.386;2023-07-22T06:27:56;9.57;;;6.33;;
5355;SDS011;70449;52.486;13.386;2023-07-22T06:30:24;8.53;;;6.07;;
5355;SDS011;70449;52.486;13.386;2023-07-22T06:32:51;7.63;;;6.47;;
5355;SDS011;70449;52.486;13.386;2023-07-22T06:35:19;11.13;;;7.00;;
5355;SDS011;70449;52.486;13.386;2023-07-22T06:37:47;14.90;;;6.60;;
5355;SDS011;70449;52.486;13.386;2023-07-22T06:40:19;16.53;;;6.77;;
5355;SDS011;70449;52.486;13.386;2023-07-22T06:42:46;14.90;;;7.53;;
5355;SDS011;70449;52.486;13.386;2023-07-22T06:45:13;6.30;;;4.90;;
5355;SDS011;70449;52.486;13.386;2023-07-22T06:47:41;17.03;;;5.47;;
5355;SDS011;70449;52.486;13.386;2023-07-22T06:50:12;11.90;;;5.90;;
5355;SDS011;70449;52.486;13.386;2023-07-22T06:52:41;11.23;;;6.23;;
5355;SDS011;70449;52.486;13.386;2023-07-22T06:55:09;10.10;;;5.47;;
5355;SDS011;70449;52.486;13.386;2023-07-22T06:57:36;6.60;;;4.33;;
5355;SDS011;70449;52.486;13.386;2023-07-22T07:00:04;7.40;;;4.47;;
5355;SDS011;70449;52.486;13.386;2023-07-22T07:02:35;6.80;;;3.57;;
5355;SDS011;70449;52.486;13.386;2023-07-22T07:05:02;10.07;;;4.50;;
5355;SDS011;70449;52.486;13.386;2023-07-22T07:07:30;4.43;;;3.73;;
5355;SDS011;70449;52.486;13.386;2023-07-22T07:09:59;10.37;;;3.70;;
5355;SDS011;70449;52.486;13.386;2023-07-22T07:12:31;5.97;;;3.60;;
5355;SDS011;70449;52.486;13.386;2023-07-22T07:14:58;9.57;;;4.43;;
5355;SDS011;70449;52.486;13.386;2023-07-22T07:17:26;7.17;;;4.20;;
5355;SDS011;70449;52.486;13.386;2023-07-22T07:19:55;7.43;;;3.80;;
5355;SDS011;70449;52.486;13.386;2023-07-22T07:22:22;7.90;;;3.47;;
5355;SDS011;70449;52.486;13.386;2023-07-22T07:24:52;10.47;;;3.60;;
5355;SDS011;70449;52.486;13.386;2023-07-22T07:27:22;6.80;;;3.40;;
5355;SDS011;70449;52.486;13.386;2023-07-22T07:29:50;6.73;;;4.27;;
5355;SDS011;70449;52.486;13.386;2023-07-22T07:32:17;4.40;;;3.50;;
5355;SDS011;70449;52.486;13.386;2023-07-22T07:34:44;11.37;;;3.97;;
5355;SDS011;70449;52.486;13.386;2023-07-22T07:37:12;8.60;;;4.33;;
5355;SDS011;70449;52.486;13.386;2023-07-22T07:39:39;8.30;;;5.30;;
5355;SDS011;70449;52.486;13.386;2023-07-22T07:42:06;7.00;;;4.43;;
5355;SDS011;70449;52.486;13.386;2023-07-22T07:44:35;12.03;;;3.53;;
5355;SDS011;70449;52.486;13.386;2023-07-22T07:47:02;7.10;;;3.63;;
5355;SDS011;70449;52.486;13.386;2023-07-22T07:49:30;7.70;;;3.73;;
5355;SDS011;70449;52.486;13.386;2023-07-22T07:51:57;11.17;;;4.50;;
5355;SDS011;70449;52.486;13.386;2023-07-22T07:54:24;8.17;;;3.50;;
5355;SDS011;70449;52.486;13.386;2023-07-22T07:56:52;8.60;;;5.13;;
5355;SDS011;70449;52.486;13.386;2023-07-22T07:59:19;6.80;;;4.07;;
5355;SDS011;70449;52.486;13.386;2023-07-22T08:01:47;10.00;;;3.97;;
5355;SDS011;70449;52.486;13.386;2023-07-22T08:04:14;5.10;;;3.23;;
5355;SDS011;70449;52.486;13.386;2023-07-22T08:06:42;5.50;;;4.37;;
5355;SDS011;70449;52.486;13.386;2023-07-22T08:09:10;4.60;;;3.50;;
5355;SDS011;70449;52.486;13.386;2023-07-22T08:11:43;9.93;;;4.80;;
5355;SDS011;70449;52.486;13.386;2023-07-22T08:14:11;6.87;;;3.97;;
5355;SDS011;70449;52.486;13.386;2023-07-22T08:16:39;9.90;;;3.63;;
5355;SDS011;70449;52.486;13.386;2023-07-22T08:19:08;5.33;;;3.53;;
5355;SDS011;70449;52.486;13.386;2023-07-22T08:21:36;11.93;;;3.90;;
5355;SDS011;70449;52.486;13.386;2023-07-22T08:24:04;7.37;;;4.10;;
5355;SDS011;70449;52.486;13.386;2023-07-22T08:26:32;11.90;;;4.30;;
5355;SDS011;70449;52.486;13.386;2023-07-22T08:28:59;7.50;;;4.83;;
5355;SDS011;70449;52.486;13.386;2023-07-22T08:31:26;6.60;;;3.30;;
5355;SDS011;70449;52.486;13.386;2023-07-22T08:33:55;5.83;;;3.63;;
5355;SDS011;70449;52.486;13.386;2023-07-22T08:36:23;5.47;;;4.10;;
5355;SDS011;70449;52.486;13.386;2023-07-22T08:38:50;6.83;;;4.47;;
5355;SDS011;70449;52.486;13.386;2023-07-22T08:41:17;5.73;;;4.13;;
5355;SDS011;70449;52.486;13.386;2023-07-22T08:43:47;7.80;;;4.27;;
5355;SDS011;70449;52.486;13.386;2023-07-22T08:46:17;6.03;;;4.93;;
5355;SDS011;70449;52.486;13.386;2023-07-22T08:48:49;12.37;;;3.90;;
5355;SDS011;70449;52.486;13.386;2023-07-22T08:51:19;6.30;;;4.07;;
5355;SDS011;70449;52.486;13.386;2023-07-22T08:53:50;4.43;;;3.40;;
5355;SDS011;70449;52.486;13.386;2023-07-22T08:56:21;7.10;;;4.10;;
5355;SDS011;70449;52.486;13.386;2023-07-22T08:58:50;5.97;;;3.90;;
5355;SDS011;70449;52.486;13.386;2023-07-22T09:01:18;6.33;;;3.63;;
5355;SDS011;70449;52.486;13.386;2023-07-22T09:03:46;4.83;;;2.80;;
5355;SDS011;70449;52.486;13.386;2023-07-22T09:06:16;11.70;;;3.67;;
5355;SDS011;70449;52.486;13.386;2023-07-22T09:08:44;11.40;;;4.33;;
5355;SDS011;70449;52.486;13.386;2023-07-22T09:11:14;7.93;;;4.20;;
5355;SDS011;70449;52.486;13.386;2023-07-22T09:13:43;7.63;;;3.87;;
5355;SDS011;70449;52.486;13.386;2023-07-22T09:16:12;12.10;;;5.20;;
5355;SDS011;70449;52.486;13.386;2023-07-22T09:18:41;3.70;;;2.83;;
5355;SDS011;70449;52.486;13.386;2023-07-22T09:21:08;8.50;;;3.97;;
5355;SDS011;70449;52.486;13.386;2023-07-22T09:23:36;4.70;;;2.60;;
5355;SDS011;70449;52.486;13.386;2023-07-22T09:26:08;6.10;;;4.53;;
5355;SDS011;70449;52.486;13.386;2023-07-22T09:28:48;6.37;;;3.73;;
5355;SDS011;70449;52.486;13.386;2023-07-22T09:31:17;5.63;;;3.90;;
5355;SDS011;70449;52.486;13.386;2023-07-22T09:33:44;6.93;;;3.70;;
5355;SDS011;70449;52.486;13.386;2023-07-22T09:36:11;4.50;;;3.87;;
5355;SDS011;70449;52.486;13.386;2023-07-22T09:38:39;8.30;;;3.23;;
5355;SDS011;70449;52.486;13.386;2023-07-22T09:41:07;5.23;;;2.90;;
5355;SDS011;70449;52.486;13.386;2023-07-22T09:43:38;3.70;;;3.30;;
5355;SDS011;70449;52.486;13.386;2023-07-22T09:46:07;4.23;;;3.40;;
5355;SDS011;70449;52.486;13.386;2023-07-22T09:48:39;4.37;;;3.03;;
5355;SDS011;70449;52.486;13.386;2023-07-22T09:51:11;5.23;;;3.13;;
5355;SDS011;70449;52.486;13.386;2023-07-22T09:53:46;4.20;;;3.27;;
5355;SDS011;70449;52.486;13.386;2023-07-22T09:56:25;7.53;;;3.43;;
5355;SDS011;70449;52.486;13.386;2023-07-22T09:58:52;8.10;;;3.07;;
5355;SDS011;70449;52.486;13.386;2023-07-22T10:01:23;18.83;;;2.90;;
5355;SDS011;70449;52.486;13.386;2023-07-22T10:03:52;4.53;;;3.63;;
5355;SDS011;70449;52.486;13.386;2023-07-22T10:06:21;5.30;;;3.30;;
5355;SDS011;70449;52.486;13.386;2023-07-22T10:08:50;4.97;;;3.27;;
5355;SDS011;70449;52.486;13.386;2023-07-22T10:11:18;9.93;;;3.43;;
5355;SDS011;70449;52.486;13.386;2023-07-22T10:13:45;10.10;;;3.40;;
5355;SDS011;70449;52.486;13.386;2023-07-22T10:16:13;6.37;;;3.20;;
5355;SDS011;70449;52.486;13.386;2023-07-22T10:18:42;8.03;;;3.47;;
5355;SDS011;70449;52.486;13.386;2023-07-22T10:21:11;6.20;;;3.23;;
5355;SDS011;70449;52.486;13.386;2023-07-22T10:23:38;4.30;;;3.00;;
5355;SDS011;70449;52.486;13.386;2023-07-22T10:26:07;6.17;;;3.10;;
5355;SDS011;70449;52.486;13.386;2023-07-22T10:28:38;4.03;;;3.20;;
5355;SDS011;70449;52.486;13.386;2023-07-22T10:31:07;4.50;;;3.07;;
5355;SDS011;70449;52.486;13.386;2023-07-22T10:33:35;6.07;;;3.90;;
5355;SDS011;70449;52.486;13.386;2023-07-22T10:36:04;9.90;;;3.67;;
5355;SDS011;70449;52.486;13.386;2023-07-22T10:38:34;7.60;;;3.73;;
5355;SDS011;70449;52.486;13.386;2023-07-22T10:41:11;6.97;;;3.80;;
5355;SDS011;70449;52.486;13.386;2023-07-22T10:43:39;6.10;;;3.57;;
5355;SDS011;70449;52.486;13.386;2023-07-22T10:46:09;7.70;;;3.43;;
5355;SDS011;70449;52.486;13.386;2023-07-22T10:48:38;5.90;;;4.07;;
5355;SDS011;70449;52.486;13.386;2023-07-22T10:51:09;4.53;;;3.43;;
5355;SDS011;70449;52.486;13.386;2023-07-22T10:53:40;4.80;;;2.93;;
5355;SDS011;70449;52.486;13.386;2023-07-22T10:56:13;14.83;;;4.20;;
5355;SDS011;70449;52.486;13.386;2023-07-22T10:59:00;6.03;;;3.90;;
5355;SDS011;70449;52.486;13.386;2023-07-22T11:01:32;4.87;;;3.60;;
5355;SDS011;70449;52.486;13.386;2023-07-22T11:04:02;5.97;;;4.07;;
5355;SDS011;70449;52.486;13.386;2023-07-22T11:06:37;11.30;;;3.07;;
5355;SDS011;70449;52.486;13.386;2023-07-22T11:09:06;5.47;;;3.30;;
5355;SDS011;70449;52.486;13.386;2023-07-22T11:11:54;11.10;;;5.10;;
5355;SDS011;70449;52.486;13.386;2023-07-22T11:14:23;12.07;;;3.50;;
5355;SDS011;70449;52.486;13.386;2023-07-22T11:16:52;4.10;;;3.70;;
5355;SDS011;70449;52.486;13.386;2023-07-22T11:19:21;9.03;;;4.20;;
5355;SDS011;70449;52.486;13.386;2023-07-22T11:21:51;9.80;;;4.40;;
5355;SDS011;70449;52.486;13.386;2023-07-22T11:24:20;5.87;;;3.70;;
5355;SDS011;70449;52.486;13.386;2023-07-22T11:26:49;4.10;;;3.50;;
5355;SDS011;70449;52.486;13.386;2023-07-22T11:29:17;4.00;;;3.43;;
5355;SDS011;70449;52.486;13.386;2023-07-22T11:31:45;9.53;;;4.13;;
5355;SDS011;70449;52.486;13.386;2023-07-22T11:34:15;7.03;;;4.40;;
5355;SDS011;70449;52.486;13.386;2023-07-22T11:36:44;5.77;;;3.87;;
5355;SDS011;70449;52.486;13.386;2023-07-22T11:39:14;8.23;;;4.23;;
5355;SDS011;70449;52.486;13.386;2023-07-22T11:41:43;6.20;;;4.23;;
5355;SDS011;70449;52.486;13.386;2023-07-22T11:44:12;5.30;;;3.90;;
5355;SDS011;70449;52.486;13.386;2023-07-22T11:46:47;4.60;;;3.43;;
5355;SDS011;70449;52.486;13.386;2023-07-22T11:49:26;6.63;;;3.97;;
5355;SDS011;70449;52.486;13.386;2023-07-22T11:51:55;6.13;;;4.50;;
5355;SDS011;70449;52.486;13.386;2023-07-22T11:54:25;8.33;;;3.67;;
5355;SDS011;70449;52.486;13.386;2023-07-22T11:56:53;12.60;;;5.33;;
5355;SDS011;70449;52.486;13.386;2023-07-22T11:59:34;4.23;;;3.50;;
5355;SDS011;70449;52.486;13.386;2023-07-22T12:02:03;6.20;;;3.60;;
5355;SDS011;70449;52.486;13.386;2023-07-22T12:04:31;9.67;;;4.30;;
5355;SDS011;70449;52.486;13.386;2023-07-22T12:06:59;5.17;;;3.30;;
5355;SDS011;70449;52.486;13.386;2023-07-22T12:09:30;5.60;;;3.90;;
5355;SDS011;70449;52.486;13.386;2023-07-22T12:11:58;6.77;;;3.67;;
5355;SDS011;70449;52.486;13.386;2023-07-22T12:14:33;5.70;;;3.40;;
5355;SDS011;70449;52.486;13.386;2023-07-22T12:17:01;5.63;;;3.57;;
5355;SDS011;70449;52.486;13.386;2023-07-22T12:19:28;8.50;;;4.23;;
5355;SDS011;70449;52.486;13.386;2023-07-22T12:21:56;4.73;;;3.80;;
5355;SDS011;70449;52.486;13.386;2023-07-22T12:24:23;4.17;;;3.77;;
5355;SDS011;70449;52.486;13.386;2023-07-22T12:26:52;7.13;;;4.50;;
5355;SDS011;70449;52.486;13.386;2023-07-22T12:29:19;13.50;;;4.10;;
5355;SDS011;70449;52.486;13.386;2023-07-22T12:31:47;7.70;;;4.53;;
5355;SDS011;70449;52.486;13.386;2023-07-22T12:34:14;7.03;;;4.90;;
5355;SDS011;70449;52.486;13.386;2023-07-22T12:36:42;5.97;;;3.73;;
5355;SDS011;70449;52.486;13.386;2023-07-22T12:39:10;5.00;;;4.03;;
5355;SDS011;70449;52.486;13.386;2023-07-22T12:41:37;6.33;;;3.87;;
5355;SDS011;70449;52.486;13.386;2023-07-22T12:44:06;6.63;;;4.60;;
5355;SDS011;70449;52.486;13.386;2023-07-22T12:46:33;6.87;;;4.27;;
5355;SDS011;70449;52.486;13.386;2023-07-22T12:49:00;12.23;;;5.37;;
5355;SDS011;70449;52.486;13.386;2023-07-22T12:51:27;6.77;;;3.63;;
5355;SDS011;70449;52.486;13.386;2023-07-22T12:53:54;7.43;;;4.47;;
5355;SDS011;70449;52.486;13.386;2023-07-22T12:56:22;7.20;;;4.33;;
5355;SDS011;70449;52.486;13.386;2023-07-22T12:58:49;6.73;;;4.00;;
5355;SDS011;70449;52.486;13.386;2023-07-22T13:01:18;5.93;;;3.67;;
5355;SDS011;70449;52.486;13.386;2023-07-22T13:03:45;7.13;;;4.57;;
5355;SDS011;70449;52.486;13.386;2023-07-22T13:06:12;5.90;;;3.70;;
5355;SDS011;70449;52.486;13.386;2023-07-22T13:08:39;5.73;;;4.20;;
5355;SDS011;70449;52.486;13.386;2023-07-22T13:11:06;9.10;;;4.50;;
5355;SDS011;70449;52.486;13.386;2023-07-22T13:13:34;7.43;;;3.90;;
5355;SDS011;70449;52.486;13.386;2023-07-22T13:16:01;5.23;;;4.10;;
5355;SDS011;70449;52.486;13.386;2023-07-22T13:18:30;5.70;;;4.03;;
5355;SDS011;70449;52.486;13.386;2023-07-22T13:20:57;5.40;;;3.97;;
5355;SDS011;70449;52.486;13.386;2023-07-22T13:23:24;6.60;;;4.43;;
5355;SDS011;70449;52.486;13.386;2023-07-22T13:25:51;5.60;;;4.00;;
5355;SDS011;70449;52.486;13.386;2023-07-22T13:28:19;8.10;;;4.40;;
5355;SDS011;70449;52.486;13.386;2023-07-22T13:30:46;6.13;;;4.37;;
5355;SDS011;70449;52.486;13.386;2023-07-22T13:33:13;5.70;;;3.67;;
5355;SDS011;70449;52.486;13.386;2023-07-22T13:35:41;8.40;;;4.67;;
5355;SDS011;70449;52.486;13.386;2023-07-22T13:38:09;6.20;;;4.33;;
5355;SDS011;70449;52.486;13.386;2023-07-22T13:40:36;5.83;;;4.03;;
5355;SDS011;70449;52.486;13.386;2023-07-22T13:43:03;7.07;;;4.53;;
5355;SDS011;70449;52.486;13.386;2023-07-22T13:45:30;5.83;;;4.10;;
5355;SDS011;70449;52.486;13.386;2023-07-22T13:47:58;8.13;;;4.43;;
5355;SDS011;70449;52.486;13.386;2023-07-22T13:50:25;6.32;;;4.18;;
5355;SDS011;70449;52.486;13.386;2023-07-22T13:52:54;13.85;;;4.68;;
5355;SDS011;70449;52.486;13.386;2023-07-22T13:55:21;5.00;;;3.40;;
5355;SDS011;70449;52.486;13.386;2023-07-22T13:57:48;5.00;;;3.83;;
5355;SDS011;70449;52.486;13.386;2023-07-22T14:00:16;4.80;;;3.63;;
5355;SDS011;70449;52.486;13.386;2023-07-22T14:02:43;7.63;;;4.37;;
5355;SDS011;70449;52.486;13.386;2023-07-22T14:05:10;5.80;;;4.37;;
5355;SDS011;70449;52.486;13.386;2023-07-22T14:07:38;9.43;;;4.20;;
5355;SDS011;70449;52.486;13.386;2023-07-22T14:10:07;8.10;;;4.10;;
5355;SDS011;70449;52.486;13.386;2023-07-22T14:12:35;6.30;;;4.43;;
5355;SDS011;70449;52.486;13.386;2023-07-22T14:15:03;7.20;;;4.27;;
5355;SDS011;70449;52.486;13.386;2023-07-22T14:17:32;5.33;;;3.83;;
5355;SDS011;70449;52.486;13.386;2023-07-22T14:19:59;4.87;;;3.80;;
5355;SDS011;70449;52.486;13.386;2023-07-22T14:22:29;4.80;;;3.20;;
5355;SDS011;70449;52.486;13.386;2023-07-22T14:24:57;6.60;;;4.10;;
5355;SDS011;70449;52.486;13.386;2023-07-22T14:27:25;6.37;;;3.93;;
5355;SDS011;70449;52.486;13.386;2023-07-22T14:29:52;6.67;;;4.00;;
5355;SDS011;70449;52.486;13.386;2023-07-22T14:32:20;5.80;;;4.60;;
5355;SDS011;70449;52.486;13.386;2023-07-22T14:34:47;4.47;;;3.60;;
5355;SDS011;70449;52.486;13.386;2023-07-22T14:37:14;5.83;;;3.80;;
5355;SDS011;70449;52.486;13.386;2023-07-22T14:39:42;5.63;;;3.70;;
5355;SDS011;70449;52.486;13.386;2023-07-22T14:42:09;6.13;;;3.90;;
5355;SDS011;70449;52.486;13.386;2023-07-22T14:44:38;12.13;;;4.17;;
5355;SDS011;70449;52.486;13.386;2023-07-22T14:47:05;6.17;;;3.80;;
5355;SDS011;70449;52.486;13.386;2023-07-22T14:49:32;5.77;;;4.23;;
5355;SDS011;70449;52.486;13.386;2023-07-22T14:52:00;5.70;;;4.00;;